sensor_id;sensor_type;location;lat;lon;timestamp;temperature;humidity
14210;DHT22;7188;56.070;12.698;2023-08-20T00:01:14;19.30;99.90
14210;DHT22;7188;56.070;12.698;2023-08-20T00:03:42;19.30;99.90
14210;DHT22;7188;56.070;12.698;2023-08-20T00:06:09;19.20;99.90
14210;DHT22;7188;56.070;12.698;2023-08-20T00:08:35;19.10;99.90
14210;DHT22;7188;56.070;12.698;2023-08-20T00:11:01;19.10;99.90
14210;DHT22;7188;56.070;12.698;2023-08-20T00:13:28;19.10;99.90
14210;DHT22;7188;56.070;12.698;2023-08-20T00:15:53;19.10;99.90
14210;DHT22;7188;56.070;12.698;2023-08-20T00:18:19;19.10;99.90
14210;DHT22;7188;56.070;12.698;2023-08-20T00:20:45;19.00;99.90
14210;DHT22;7188;56.070;12.698;2023-08-20T00:23:11;19.00;99.90
14210;DHT22;7188;56.070;12.698;2023-08-20T00:25:37;18.90;99.90
14210;DHT22;7188;56.070;12.698;2023-08-20T00:28:03;18.90;99.90
14210;DHT22;7188;56.070;12.698;2023-08-20T00:30:29;18.90;99.90
14210;DHT22;7188;56.070;12.698;2023-08-20T00:32:54;18.80;99.90
14210;DHT22;7188;56.070;12.698;2023-08-20T00:35:21;18.80;99.90
14210;DHT22;7188;56.070;12.698;2023-08-20T00:37:47;18.80;99.90
14210;DHT22;7188;56.070;12.698;2023-08-20T00:40:12;18.80;99.90
14210;DHT22;7188;56.070;12.698;2023-08-20T00:42:38;18.80;99.90
14210;DHT22;7188;56.070;12.698;2023-08-20T00:45:04;18.80;99.90
14210;DHT22;7188;56.070;12.698;2023-08-20T00:47:30;18.80;99.90
14210;DHT22;7188;56.070;12.698;2023-08-20T00:49:56;18.70;99.90
14210;DHT22;7188;56.070;12.698;2023-08-20T00:52:22;18.70;99.90
14210;DHT22;7188;56.070;12.698;2023-08-20T00:54:49;18.70;99.90
14210;DHT22;7188;56.070;12.698;2023-08-20T00:57:19;18.60;99.90
14210;DHT22;7188;56.070;12.698;2023-08-20T00:59:47;18.50;99.90
14210;DHT22;7188;56.070;12.698;2023-08-20T01:02:18;18.60;99.90
14210;DHT22;7188;56.070;12.698;2023-08-20T01:04:45;18.60;99.90
14210;DHT22;7188;56.070;12.698;2023-08-20T01:09:50;18.60;99.90
14210;DHT22;7188;56.070;12.698;2023-08-20T01:12:20;18.60;99.90
14210;DHT22;7188;56.070;12.698;2023-08-20T01:14:45;18.70;99.90
14210;DHT22;7188;56.070;12.698;2023-08-20T01:17:11;18.60;99.90
14210;DHT22;7188;56.070;12.698;2023-08-20T01:19:37;18.60;99.90
14210;DHT22;7188;56.070;12.698;2023-08-20T01:30:25;18.60;99.90
14210;DHT22;7188;56.070;12.698;2023-08-20T01:32:53;18.60;99.90
14210;DHT22;7188;56.070;12.698;2023-08-20T01:35:19;18.60;99.90
14210;DHT22;7188;56.070;12.698;2023-08-20T01:37:45;18.60;99.90
14210;DHT22;7188;56.070;12.698;2023-08-20T01:40:11;18.60;99.90
14210;DHT22;7188;56.070;12.698;2023-08-20T01:42:37;18.60;99.90
14210;DHT22;7188;56.070;12.698;2023-08-20T01:45:04;18.60;99.90
14210;DHT22;7188;56.070;12.698;2023-08-20T01:47:31;18.60;99.90
14210;DHT22;7188;56.070;12.698;2023-08-20T01:49:56;18.60;99.90
14210;DHT22;7188;56.070;12.698;2023-08-20T01:52:22;18.60;99.90
14210;DHT22;7188;56.070;12.698;2023-08-20T01:54:51;18.60;99.90
14210;DHT22;7188;56.070;12.698;2023-08-20T01:57:36;18.60;99.90
14210;DHT22;7188;56.070;12.698;2023-08-20T02:00:02;18.60;99.90
14210;DHT22;7188;56.070;12.698;2023-08-20T02:02:30;18.60;99.90
14210;DHT22;7188;56.070;12.698;2023-08-20T02:04:56;18.60;99.90
14210;DHT22;7188;56.070;12.698;2023-08-20T02:07:22;18.60;99.90
14210;DHT22;7188;56.070;12.698;2023-08-20T02:09:47;18.60;99.90
14210;DHT22;7188;56.070;12.698;2023-08-20T02:12:14;18.60;99.90
14210;DHT22;7188;56.070;12.698;2023-08-20T02:14:39;18.60;99.90
14210;DHT22;7188;56.070;12.698;2023-08-20T02:17:06;18.60;99.90
14210;DHT22;7188;56.070;12.698;2023-08-20T02:19:32;18.60;99.90
14210;DHT22;7188;56.070;12.698;2023-08-20T02:21:57;18.60;99.90
14210;DHT22;7188;56.070;12.698;2023-08-20T02:24:23;18.60;99.90
14210;DHT22;7188;56.070;12.698;2023-08-20T02:26:49;18.60;99.90
14210;DHT22;7188;56.070;12.698;2023-08-20T02:29:14;18.60;99.90
14210;DHT22;7188;56.070;12.698;2023-08-20T02:31:40;18.60;99.90
14210;DHT22;7188;56.070;12.698;2023-08-20T02:34:05;18.50;99.90
14210;DHT22;7188;56.070;12.698;2023-08-20T02:36:31;18.50;99.90
14210;DHT22;7188;56.070;12.698;2023-08-20T02:38:57;18.60;99.90
14210;DHT22;7188;56.070;12.698;2023-08-20T02:41:22;18.50;99.90
14210;DHT22;7188;56.070;12.698;2023-08-20T02:43:48;18.60;99.90
14210;DHT22;7188;56.070;12.698;2023-08-20T02:46:14;18.60;99.90
14210;DHT22;7188;56.070;12.698;2023-08-20T02:48:40;18.60;99.90
14210;DHT22;7188;56.070;12.698;2023-08-20T02:51:05;18.60;99.90
14210;DHT22;7188;56.070;12.698;2023-08-20T02:53:32;18.60;99.90
14210;DHT22;7188;56.070;12.698;2023-08-20T02:55:57;18.60;99.90
14210;DHT22;7188;56.070;12.698;2023-08-20T02:58:23;18.70;99.90
14210;DHT22;7188;56.070;12.698;2023-08-20T03:00:48;18.70;99.90
14210;DHT22;7188;56.070;12.698;2023-08-20T03:03:14;18.60;99.90
14210;DHT22;7188;56.070;12.698;2023-08-20T03:05:40;18.60;99.90
14210;DHT22;7188;56.070;12.698;2023-08-20T03:08:05;18.60;99.90
14210;DHT22;7188;56.070;12.698;2023-08-20T03:10:32;18.60;99.90
14210;DHT22;7188;56.070;12.698;2023-08-20T03:13:01;18.60;99.90
14210;DHT22;7188;56.070;12.698;2023-08-20T03:15:28;18.60;99.90
14210;DHT22;7188;56.070;12.698;2023-08-20T03:17:54;18.60;99.90
14210;DHT22;7188;56.070;12.698;2023-08-20T03:20:19;18.60;99.90
14210;DHT22;7188;56.070;12.698;2023-08-20T03:22:45;18.60;99.90
14210;DHT22;7188;56.070;12.698;2023-08-20T03:25:10;18.60;99.90
14210;DHT22;7188;56.070;12.698;2023-08-20T03:27:36;18.60;99.90
14210;DHT22;7188;56.070;12.698;2023-08-20T03:30:03;18.60;99.90
14210;DHT22;7188;56.070;12.698;2023-08-20T03:32:29;18.60;99.90
14210;DHT22;7188;56.070;12.698;2023-08-20T03:34:55;18.60;99.90
14210;DHT22;7188;56.070;12.698;2023-08-20T03:37:21;18.60;99.90
14210;DHT22;7188;56.070;12.698;2023-08-20T03:39:59;18.60;99.90
14210;DHT22;7188;56.070;12.698;2023-08-20T03:42:25;18.50;99.90
14210;DHT22;7188;56.070;12.698;2023-08-20T03:44:50;18.60;99.90
14210;DHT22;7188;56.070;12.698;2023-08-20T03:47:41;18.60;99.90
14210;DHT22;7188;56.070;12.698;2023-08-20T03:50:10;18.60;99.90
14210;DHT22;7188;56.070;12.698;2023-08-20T03:52:35;18.60;99.90
14210;DHT22;7188;56.070;12.698;2023-08-20T03:55:01;18.50;99.90
14210;DHT22;7188;56.070;12.698;2023-08-20T03:57:27;18.50;99.90
14210;DHT22;7188;56.070;12.698;2023-08-20T03:59:53;18.50;99.90
14210;DHT22;7188;56.070;12.698;2023-08-20T04:02:18;18.50;99.90
14210;DHT22;7188;56.070;12.698;2023-08-20T04:04:44;18.50;99.90
14210;DHT22;7188;56.070;12.698;2023-08-20T04:07:09;18.40;99.90
14210;DHT22;7188;56.070;12.698;2023-08-20T04:09:35;18.40;99.90
14210;DHT22;7188;56.070;12.698;2023-08-20T04:12:03;18.40;99.90
14210;DHT22;7188;56.070;12.698;2023-08-20T04:14:28;18.40;99.90
14210;DHT22;7188;56.070;12.698;2023-08-20T04:16:54;18.40;99.90
14210;DHT22;7188;56.070;12.698;2023-08-20T04:19:19;18.40;99.90
14210;DHT22;7188;56.070;12.698;2023-08-20T04:21:45;18.40;99.90
14210;DHT22;7188;56.070;12.698;2023-08-20T04:24:11;18.40;99.90
14210;DHT22;7188;56.070;12.698;2023-08-20T04:26:37;18.40;99.90
14210;DHT22;7188;56.070;12.698;2023-08-20T04:29:02;18.40;99.90
14210;DHT22;7188;56.070;12.698;2023-08-20T04:31:28;18.40;99.90
14210;DHT22;7188;56.070;12.698;2023-08-20T04:33:54;18.40;99.90
14210;DHT22;7188;56.070;12.698;2023-08-20T04:36:19;18.40;99.90
14210;DHT22;7188;56.070;12.698;2023-08-20T04:38:45;18.40;99.90
14210;DHT22;7188;56.070;12.698;2023-08-20T04:41:10;18.50;99.90
14210;DHT22;7188;56.070;12.698;2023-08-20T04:43:36;18.40;99.90
14210;DHT22;7188;56.070;12.698;2023-08-20T04:46:01;18.40;99.90
14210;DHT22;7188;56.070;12.698;2023-08-20T04:48:27;18.40;99.90
14210;DHT22;7188;56.070;12.698;2023-08-20T04:50:52;18.40;99.90
14210;DHT22;7188;56.070;12.698;2023-08-20T04:53:18;18.50;99.90
14210;DHT22;7188;56.070;12.698;2023-08-20T04:55:44;18.40;99.90
14210;DHT22;7188;56.070;12.698;2023-08-20T04:58:09;18.50;99.90
14210;DHT22;7188;56.070;12.698;2023-08-20T05:00:35;18.50;99.90
14210;DHT22;7188;56.070;12.698;2023-08-20T05:03:00;18.50;99.90
14210;DHT22;7188;56.070;12.698;2023-08-20T05:05:26;18.50;99.90
14210;DHT22;7188;56.070;12.698;2023-08-20T05:07:52;18.50;99.90
14210;DHT22;7188;56.070;12.698;2023-08-20T05:10:18;18.50;99.90
14210;DHT22;7188;56.070;12.698;2023-08-20T05:12:43;18.50;99.90
14210;DHT22;7188;56.070;12.698;2023-08-20T05:15:09;18.60;99.90
14210;DHT22;7188;56.070;12.698;2023-08-20T05:17:35;18.60;99.90
14210;DHT22;7188;56.070;12.698;2023-08-20T05:20:00;18.60;99.90
14210;DHT22;7188;56.070;12.698;2023-08-20T05:22:26;18.60;99.90
14210;DHT22;7188;56.070;12.698;2023-08-20T05:24:52;18.50;99.90
14210;DHT22;7188;56.070;12.698;2023-08-20T05:27:17;18.60;99.90
14210;DHT22;7188;56.070;12.698;2023-08-20T05:29:43;18.60;99.90
14210;DHT22;7188;56.070;12.698;2023-08-20T05:32:09;18.60;99.90
14210;DHT22;7188;56.070;12.698;2023-08-20T05:34:35;18.60;99.90
14210;DHT22;7188;56.070;12.698;2023-08-20T05:37:01;18.60;99.90
14210;DHT22;7188;56.070;12.698;2023-08-20T05:39:27;18.60;99.90
14210;DHT22;7188;56.070;12.698;2023-08-20T05:41:56;18.60;99.90
14210;DHT22;7188;56.070;12.698;2023-08-20T05:44:22;18.70;99.90
14210;DHT22;7188;56.070;12.698;2023-08-20T05:46:48;18.70;99.90
14210;DHT22;7188;56.070;12.698;2023-08-20T05:49:14;18.70;99.90
14210;DHT22;7188;56.070;12.698;2023-08-20T05:51:44;18.70;99.90
14210;DHT22;7188;56.070;12.698;2023-08-20T05:54:10;18.80;99.90
14210;DHT22;7188;56.070;12.698;2023-08-20T05:56:36;18.80;99.90
14210;DHT22;7188;56.070;12.698;2023-08-20T05:59:02;18.80;99.90
14210;DHT22;7188;56.070;12.698;2023-08-20T06:01:27;18.90;99.90
14210;DHT22;7188;56.070;12.698;2023-08-20T06:03:53;18.90;99.90
14210;DHT22;7188;56.070;12.698;2023-08-20T06:06:19;18.90;99.90
14210;DHT22;7188;56.070;12.698;2023-08-20T06:08:44;19.00;99.90
14210;DHT22;7188;56.070;12.698;2023-08-20T06:11:10;19.00;99.90
14210;DHT22;7188;56.070;12.698;2023-08-20T06:13:35;19.00;99.90
14210;DHT22;7188;56.070;12.698;2023-08-20T06:16:01;19.00;99.90
14210;DHT22;7188;56.070;12.698;2023-08-20T06:18:26;19.00;99.90
14210;DHT22;7188;56.070;12.698;2023-08-20T06:20:52;19.00;99.90
14210;DHT22;7188;56.070;12.698;2023-08-20T06:23:18;19.00;99.90
14210;DHT22;7188;56.070;12.698;2023-08-20T06:25:43;19.00;99.90
14210;DHT22;7188;56.070;12.698;2023-08-20T06:28:14;19.00;99.90
14210;DHT22;7188;56.070;12.698;2023-08-20T06:30:39;19.00;99.90
14210;DHT22;7188;56.070;12.698;2023-08-20T06:33:05;18.90;99.90
14210;DHT22;7188;56.070;12.698;2023-08-20T06:35:31;19.00;99.90
14210;DHT22;7188;56.070;12.698;2023-08-20T06:37:56;18.90;99.90
14210;DHT22;7188;56.070;12.698;2023-08-20T06:40:22;18.90;99.90
14210;DHT22;7188;56.070;12.698;2023-08-20T06:42:47;18.90;99.90
14210;DHT22;7188;56.070;12.698;2023-08-20T06:45:13;18.90;99.90
14210;DHT22;7188;56.070;12.698;2023-08-20T06:47:39;18.90;99.90
14210;DHT22;7188;56.070;12.698;2023-08-20T06:50:05;18.90;99.90
14210;DHT22;7188;56.070;12.698;2023-08-20T06:52:31;18.90;99.90
14210;DHT22;7188;56.070;12.698;2023-08-20T06:54:57;18.90;99.90
14210;DHT22;7188;56.070;12.698;2023-08-20T06:57:35;18.90;99.90
14210;DHT22;7188;56.070;12.698;2023-08-20T07:00:00;18.90;99.90
14210;DHT22;7188;56.070;12.698;2023-08-20T07:02:26;18.90;99.90
14210;DHT22;7188;56.070;12.698;2023-08-20T07:04:51;18.90;99.90
14210;DHT22;7188;56.070;12.698;2023-08-20T07:07:17;18.90;99.90
14210;DHT22;7188;56.070;12.698;2023-08-20T07:09:42;18.90;99.90
14210;DHT22;7188;56.070;12.698;2023-08-20T07:12:08;19.00;99.90
14210;DHT22;7188;56.070;12.698;2023-08-20T07:14:49;19.00;99.90
14210;DHT22;7188;56.070;12.698;2023-08-20T07:17:15;19.00;99.90
14210;DHT22;7188;56.070;12.698;2023-08-20T07:19:40;19.00;99.90
14210;DHT22;7188;56.070;12.698;2023-08-20T07:22:06;19.00;99.90
14210;DHT22;7188;56.070;12.698;2023-08-20T07:24:31;19.10;99.90
14210;DHT22;7188;56.070;12.698;2023-08-20T07:27:00;19.10;99.90
14210;DHT22;7188;56.070;12.698;2023-08-20T07:29:27;19.10;99.90
14210;DHT22;7188;56.070;12.698;2023-08-20T07:31:56;19.10;99.90
14210;DHT22;7188;56.070;12.698;2023-08-20T07:34:22;19.20;99.90
14210;DHT22;7188;56.070;12.698;2023-08-20T07:36:48;19.20;99.90
14210;DHT22;7188;56.070;12.698;2023-08-20T07:39:14;19.20;99.90
14210;DHT22;7188;56.070;12.698;2023-08-20T07:41:40;19.30;99.90
14210;DHT22;7188;56.070;12.698;2023-08-20T07:44:06;19.30;99.90
14210;DHT22;7188;56.070;12.698;2023-08-20T07:46:31;19.30;99.90
14210;DHT22;7188;56.070;12.698;2023-08-20T07:48:57;19.40;99.90
14210;DHT22;7188;56.070;12.698;2023-08-20T07:51:23;19.40;99.90
14210;DHT22;7188;56.070;12.698;2023-08-20T07:53:48;19.40;99.90
14210;DHT22;7188;56.070;12.698;2023-08-20T07:56:14;19.40;99.90
14210;DHT22;7188;56.070;12.698;2023-08-20T07:58:39;19.40;99.90
14210;DHT22;7188;56.070;12.698;2023-08-20T08:01:05;19.50;99.90
14210;DHT22;7188;56.070;12.698;2023-08-20T08:03:30;19.50;99.90
14210;DHT22;7188;56.070;12.698;2023-08-20T08:05:56;19.50;99.90
14210;DHT22;7188;56.070;12.698;2023-08-20T08:08:22;19.50;99.90
14210;DHT22;7188;56.070;12.698;2023-08-20T08:10:49;19.40;99.90
14210;DHT22;7188;56.070;12.698;2023-08-20T08:13:22;19.40;99.90
14210;DHT22;7188;56.070;12.698;2023-08-20T08:15:48;19.40;99.90
14210;DHT22;7188;56.070;12.698;2023-08-20T08:18:14;19.30;99.90
14210;DHT22;7188;56.070;12.698;2023-08-20T08:20:40;19.30;99.90
14210;DHT22;7188;56.070;12.698;2023-08-20T08:23:06;19.30;99.90
14210;DHT22;7188;56.070;12.698;2023-08-20T08:25:31;19.30;99.90
14210;DHT22;7188;56.070;12.698;2023-08-20T08:27:58;19.20;99.90
14210;DHT22;7188;56.070;12.698;2023-08-20T08:30:23;19.20;99.90
14210;DHT22;7188;56.070;12.698;2023-08-20T08:32:49;19.10;99.90
14210;DHT22;7188;56.070;12.698;2023-08-20T08:35:16;19.00;99.90
14210;DHT22;7188;56.070;12.698;2023-08-20T08:37:42;19.00;99.90
14210;DHT22;7188;56.070;12.698;2023-08-20T08:40:08;18.90;99.90
14210;DHT22;7188;56.070;12.698;2023-08-20T08:42:34;18.80;99.90
14210;DHT22;7188;56.070;12.698;2023-08-20T08:45:00;18.70;99.90
14210;DHT22;7188;56.070;12.698;2023-08-20T08:47:26;18.70;99.90
14210;DHT22;7188;56.070;12.698;2023-08-20T08:49:55;18.70;99.90
14210;DHT22;7188;56.070;12.698;2023-08-20T08:52:22;18.70;99.90
14210;DHT22;7188;56.070;12.698;2023-08-20T08:54:48;18.60;99.90
14210;DHT22;7188;56.070;12.698;2023-08-20T08:57:15;18.60;99.90
14210;DHT22;7188;56.070;12.698;2023-08-20T08:59:41;18.60;99.90
14210;DHT22;7188;56.070;12.698;2023-08-20T09:02:09;18.60;99.90
14210;DHT22;7188;56.070;12.698;2023-08-20T09:04:41;18.50;99.90
14210;DHT22;7188;56.070;12.698;2023-08-20T09:07:14;18.50;99.90
14210;DHT22;7188;56.070;12.698;2023-08-20T09:09:44;18.40;99.90
14210;DHT22;7188;56.070;12.698;2023-08-20T09:12:17;18.40;99.90
14210;DHT22;7188;56.070;12.698;2023-08-20T09:14:50;18.60;99.90
14210;DHT22;7188;56.070;12.698;2023-08-20T09:17:17;18.60;99.90
14210;DHT22;7188;56.070;12.698;2023-08-20T09:19:45;18.70;99.90
14210;DHT22;7188;56.070;12.698;2023-08-20T09:22:14;18.70;99.90
14210;DHT22;7188;56.070;12.698;2023-08-20T09:24:44;18.70;99.90
14210;DHT22;7188;56.070;12.698;2023-08-20T09:27:13;18.70;99.90
14210;DHT22;7188;56.070;12.698;2023-08-20T09:29:47;18.70;99.90
14210;DHT22;7188;56.070;12.698;2023-08-20T09:32:24;18.70;99.90
14210;DHT22;7188;56.070;12.698;2023-08-20T09:34:52;18.70;99.90
14210;DHT22;7188;56.070;12.698;2023-08-20T09:37:19;18.90;99.90
14210;DHT22;7188;56.070;12.698;2023-08-20T09:39:45;18.90;99.90
14210;DHT22;7188;56.070;12.698;2023-08-20T09:42:12;19.00;99.90
14210;DHT22;7188;56.070;12.698;2023-08-20T09:44:40;19.10;99.90
14210;DHT22;7188;56.070;12.698;2023-08-20T09:47:08;19.10;99.90
14210;DHT22;7188;56.070;12.698;2023-08-20T09:49:42;19.20;99.90
14210;DHT22;7188;56.070;12.698;2023-08-20T09:52:10;19.30;99.90
14210;DHT22;7188;56.070;12.698;2023-08-20T09:57:14;19.30;99.90
14210;DHT22;7188;56.070;12.698;2023-08-20T09:59:41;19.40;99.90
14210;DHT22;7188;56.070;12.698;2023-08-20T10:02:11;19.40;99.90
14210;DHT22;7188;56.070;12.698;2023-08-20T10:04:37;19.40;99.90
14210;DHT22;7188;56.070;12.698;2023-08-20T10:07:03;19.30;99.90
14210;DHT22;7188;56.070;12.698;2023-08-20T10:09:29;19.20;99.90
14210;DHT22;7188;56.070;12.698;2023-08-20T10:11:55;19.20;99.90
14210;DHT22;7188;56.070;12.698;2023-08-20T10:14:21;19.20;99.90
14210;DHT22;7188;56.070;12.698;2023-08-20T10:16:47;19.10;99.90
14210;DHT22;7188;56.070;12.698;2023-08-20T10:19:15;19.00;99.90
14210;DHT22;7188;56.070;12.698;2023-08-20T10:21:45;19.00;99.90
14210;DHT22;7188;56.070;12.698;2023-08-20T10:24:16;19.10;99.90
14210;DHT22;7188;56.070;12.698;2023-08-20T10:26:45;19.00;99.90
14210;DHT22;7188;56.070;12.698;2023-08-20T10:32:12;19.00;99.90
14210;DHT22;7188;56.070;12.698;2023-08-20T10:34:39;19.00;99.90
14210;DHT22;7188;56.070;12.698;2023-08-20T10:37:14;19.20;99.90
14210;DHT22;7188;56.070;12.698;2023-08-20T10:39:40;19.30;99.90
14210;DHT22;7188;56.070;12.698;2023-08-20T10:42:28;19.10;99.90
14210;DHT22;7188;56.070;12.698;2023-08-20T10:45:01;19.20;99.90
14210;DHT22;7188;56.070;12.698;2023-08-20T10:47:56;19.30;99.90
14210;DHT22;7188;56.070;12.698;2023-08-20T10:50:22;19.30;99.90
14210;DHT22;7188;56.070;12.698;2023-08-20T10:52:49;19.40;99.90
14210;DHT22;7188;56.070;12.698;2023-08-20T10:55:15;19.30;99.90
14210;DHT22;7188;56.070;12.698;2023-08-20T10:57:41;19.50;99.90
14210;DHT22;7188;56.070;12.698;2023-08-20T11:00:07;19.80;99.90
14210;DHT22;7188;56.070;12.698;2023-08-20T11:02:38;20.00;99.90
14210;DHT22;7188;56.070;12.698;2023-08-20T11:05:04;20.00;99.90
14210;DHT22;7188;56.070;12.698;2023-08-20T11:07:41;20.00;99.90
14210;DHT22;7188;56.070;12.698;2023-08-20T11:10:07;20.00;99.90
14210;DHT22;7188;56.070;12.698;2023-08-20T11:12:33;20.00;99.90
14210;DHT22;7188;56.070;12.698;2023-08-20T11:15:02;20.10;99.90
14210;DHT22;7188;56.070;12.698;2023-08-20T11:17:28;20.20;99.90
14210;DHT22;7188;56.070;12.698;2023-08-20T11:19:54;20.30;99.90
14210;DHT22;7188;56.070;12.698;2023-08-20T11:22:19;20.40;99.90
14210;DHT22;7188;56.070;12.698;2023-08-20T11:24:46;20.50;99.90
14210;DHT22;7188;56.070;12.698;2023-08-20T11:27:11;20.30;99.90
14210;DHT22;7188;56.070;12.698;2023-08-20T11:29:39;20.30;99.90
14210;DHT22;7188;56.070;12.698;2023-08-20T11:32:07;20.50;99.90
14210;DHT22;7188;56.070;12.698;2023-08-20T11:34:33;20.60;99.90
14210;DHT22;7188;56.070;12.698;2023-08-20T11:36:59;20.60;99.90
14210;DHT22;7188;56.070;12.698;2023-08-20T11:39:24;20.60;99.90
14210;DHT22;7188;56.070;12.698;2023-08-20T11:41:50;20.60;99.90
14210;DHT22;7188;56.070;12.698;2023-08-20T11:44:22;20.70;99.90
14210;DHT22;7188;56.070;12.698;2023-08-20T11:46:48;20.50;99.90
14210;DHT22;7188;56.070;12.698;2023-08-20T11:49:15;20.50;99.90
14210;DHT22;7188;56.070;12.698;2023-08-20T11:51:41;20.30;99.90
14210;DHT22;7188;56.070;12.698;2023-08-20T11:54:10;20.30;99.90
14210;DHT22;7188;56.070;12.698;2023-08-20T11:56:42;20.40;99.90
14210;DHT22;7188;56.070;12.698;2023-08-20T11:59:10;20.50;99.90
14210;DHT22;7188;56.070;12.698;2023-08-20T12:01:37;20.70;99.90
14210;DHT22;7188;56.070;12.698;2023-08-20T12:04:07;20.70;1.00
14210;DHT22;7188;56.070;12.698;2023-08-20T12:06:34;20.70;1.00
14210;DHT22;7188;56.070;12.698;2023-08-20T12:09:01;20.60;1.00
14210;DHT22;7188;56.070;12.698;2023-08-20T12:11:30;20.70;99.90
14210;DHT22;7188;56.070;12.698;2023-08-20T12:13:56;20.60;99.90
14210;DHT22;7188;56.070;12.698;2023-08-20T12:16:23;20.50;1.00
14210;DHT22;7188;56.070;12.698;2023-08-20T12:18:52;20.50;99.90
14210;DHT22;7188;56.070;12.698;2023-08-20T12:21:18;20.30;1.00
14210;DHT22;7188;56.070;12.698;2023-08-20T12:23:44;20.30;1.00
14210;DHT22;7188;56.070;12.698;2023-08-20T12:26:09;20.00;1.00
14210;DHT22;7188;56.070;12.698;2023-08-20T12:28:35;20.10;1.00
14210;DHT22;7188;56.070;12.698;2023-08-20T12:31:00;20.00;1.00
14210;DHT22;7188;56.070;12.698;2023-08-20T12:33:26;20.00;1.00
14210;DHT22;7188;56.070;12.698;2023-08-20T12:35:56;19.90;1.00
14210;DHT22;7188;56.070;12.698;2023-08-20T12:38:22;19.80;1.00
14210;DHT22;7188;56.070;12.698;2023-08-20T12:40:48;19.70;1.00
14210;DHT22;7188;56.070;12.698;2023-08-20T12:43:13;19.60;1.00
14210;DHT22;7188;56.070;12.698;2023-08-20T12:45:39;19.50;1.00
14210;DHT22;7188;56.070;12.698;2023-08-20T12:48:05;19.40;1.00
14210;DHT22;7188;56.070;12.698;2023-08-20T12:50:32;19.40;64.70
14210;DHT22;7188;56.070;12.698;2023-08-20T12:52:58;19.40;77.10
14210;DHT22;7188;56.070;12.698;2023-08-20T12:55:24;19.30;48.70
14210;DHT22;7188;56.070;12.698;2023-08-20T12:57:55;19.20;99.90
14210;DHT22;7188;56.070;12.698;2023-08-20T13:00:36;19.10;99.90
14210;DHT22;7188;56.070;12.698;2023-08-20T13:03:02;19.10;99.90
14210;DHT22;7188;56.070;12.698;2023-08-20T13:05:27;19.20;99.90
14210;DHT22;7188;56.070;12.698;2023-08-20T13:07:53;19.30;99.90
14210;DHT22;7188;56.070;12.698;2023-08-20T13:10:19;19.30;99.90
14210;DHT22;7188;56.070;12.698;2023-08-20T13:12:48;19.20;99.90
14210;DHT22;7188;56.070;12.698;2023-08-20T13:15:18;19.20;99.90
14210;DHT22;7188;56.070;12.698;2023-08-20T13:17:46;19.30;99.90
14210;DHT22;7188;56.070;12.698;2023-08-20T13:20:12;19.50;99.90
14210;DHT22;7188;56.070;12.698;2023-08-20T13:22:37;19.80;99.90
14210;DHT22;7188;56.070;12.698;2023-08-20T13:25:03;19.80;1.00
14210;DHT22;7188;56.070;12.698;2023-08-20T13:27:30;19.90;1.00
14210;DHT22;7188;56.070;12.698;2023-08-20T13:29:56;20.00;1.00
14210;DHT22;7188;56.070;12.698;2023-08-20T13:32:22;20.20;1.00
14210;DHT22;7188;56.070;12.698;2023-08-20T13:34:47;20.30;1.00
14210;DHT22;7188;56.070;12.698;2023-08-20T13:37:13;20.40;1.00
14210;DHT22;7188;56.070;12.698;2023-08-20T13:39:39;20.40;99.90
14210;DHT22;7188;56.070;12.698;2023-08-20T13:42:04;20.50;1.00
14210;DHT22;7188;56.070;12.698;2023-08-20T13:44:30;20.50;1.00
14210;DHT22;7188;56.070;12.698;2023-08-20T13:46:55;20.50;1.00
14210;DHT22;7188;56.070;12.698;2023-08-20T13:49:21;20.50;1.00
14210;DHT22;7188;56.070;12.698;2023-08-20T13:51:46;20.50;99.90
14210;DHT22;7188;56.070;12.698;2023-08-20T13:54:12;20.50;99.90
14210;DHT22;7188;56.070;12.698;2023-08-20T13:56:38;20.40;1.00
14210;DHT22;7188;56.070;12.698;2023-08-20T13:59:03;20.40;1.00
14210;DHT22;7188;56.070;12.698;2023-08-20T14:01:29;20.50;1.00
14210;DHT22;7188;56.070;12.698;2023-08-20T14:03:55;20.40;1.00
14210;DHT22;7188;56.070;12.698;2023-08-20T14:06:39;20.30;95.40
14210;DHT22;7188;56.070;12.698;2023-08-20T14:09:05;20.10;1.00
14210;DHT22;7188;56.070;12.698;2023-08-20T14:11:30;20.00;1.00
14210;DHT22;7188;56.070;12.698;2023-08-20T14:13:56;19.90;1.00
14210;DHT22;7188;56.070;12.698;2023-08-20T14:16:22;19.90;99.90
14210;DHT22;7188;56.070;12.698;2023-08-20T14:18:47;20.10;99.90
14210;DHT22;7188;56.070;12.698;2023-08-20T14:21:13;20.30;1.00
14210;DHT22;7188;56.070;12.698;2023-08-20T14:23:39;20.40;94.30
14210;DHT22;7188;56.070;12.698;2023-08-20T14:26:06;20.50;99.90
14210;DHT22;7188;56.070;12.698;2023-08-20T14:28:32;20.50;1.00
14210;DHT22;7188;56.070;12.698;2023-08-20T14:31:02;20.40;1.00
14210;DHT22;7188;56.070;12.698;2023-08-20T14:33:29;20.40;1.00
14210;DHT22;7188;56.070;12.698;2023-08-20T14:35:54;20.50;99.90
14210;DHT22;7188;56.070;12.698;2023-08-20T14:38:20;20.60;1.00
14210;DHT22;7188;56.070;12.698;2023-08-20T14:40:45;20.80;1.00
14210;DHT22;7188;56.070;12.698;2023-08-20T14:43:11;20.90;99.90
14210;DHT22;7188;56.070;12.698;2023-08-20T14:45:37;20.90;99.90
14210;DHT22;7188;56.070;12.698;2023-08-20T14:48:02;20.90;1.00
14210;DHT22;7188;56.070;12.698;2023-08-20T14:50:28;20.90;1.00
14210;DHT22;7188;56.070;12.698;2023-08-20T14:52:54;20.90;99.90
14210;DHT22;7188;56.070;12.698;2023-08-20T14:55:20;20.90;99.90
14210;DHT22;7188;56.070;12.698;2023-08-20T14:57:46;21.10;99.90
14210;DHT22;7188;56.070;12.698;2023-08-20T15:00:13;21.20;99.90
14210;DHT22;7188;56.070;12.698;2023-08-20T15:02:43;21.30;51.00
14210;DHT22;7188;56.070;12.698;2023-08-20T15:05:10;21.50;1.00
14210;DHT22;7188;56.070;12.698;2023-08-20T15:08:03;21.40;1.00
14210;DHT22;7188;56.070;12.698;2023-08-20T15:10:29;21.60;1.00
14210;DHT22;7188;56.070;12.698;2023-08-20T15:12:55;21.60;99.90
14210;DHT22;7188;56.070;12.698;2023-08-20T15:15:21;21.50;99.90
14210;DHT22;7188;56.070;12.698;2023-08-20T15:17:46;21.50;99.90
14210;DHT22;7188;56.070;12.698;2023-08-20T15:20:12;21.50;1.00
14210;DHT22;7188;56.070;12.698;2023-08-20T15:22:38;21.40;1.00
14210;DHT22;7188;56.070;12.698;2023-08-20T15:25:04;21.40;1.00
14210;DHT22;7188;56.070;12.698;2023-08-20T15:27:33;21.40;1.00
14210;DHT22;7188;56.070;12.698;2023-08-20T15:30:00;21.40;99.90
14210;DHT22;7188;56.070;12.698;2023-08-20T15:32:25;21.30;99.90
14210;DHT22;7188;56.070;12.698;2023-08-20T15:34:52;21.20;1.00
14210;DHT22;7188;56.070;12.698;2023-08-20T15:37:18;21.20;1.00
14210;DHT22;7188;56.070;12.698;2023-08-20T15:39:44;21.20;1.00
14210;DHT22;7188;56.070;12.698;2023-08-20T15:42:10;21.10;1.00
14210;DHT22;7188;56.070;12.698;2023-08-20T15:44:50;21.20;1.00
14210;DHT22;7188;56.070;12.698;2023-08-20T15:47:16;21.10;1.00